createdAt,value
2019-05-10T00:04:13.292Z,1.10
2019-05-10T00:09:28.343Z,1.00
2019-05-10T00:14:52.552Z,1.00
2019-05-10T00:20:08.817Z,0.80
2019-05-10T00:25:24.657Z,0.90
2019-05-10T00:30:40.239Z,0.80
2019-05-10T00:35:55.665Z,0.90
2019-05-10T00:41:11.282Z,0.80
2019-05-10T00:46:26.892Z,0.90
2019-05-10T00:51:42.705Z,0.90
2019-05-10T00:56:58.418Z,1.03
2019-05-10T01:02:14.516Z,0.90
2019-05-10T01:07:30.396Z,0.80
2019-05-10T01:12:46.275Z,1.00
2019-05-10T01:18:02.364Z,0.80
2019-05-10T01:23:18.333Z,0.90
2019-05-10T01:28:33.756Z,1.20
2019-05-10T01:33:49.744Z,1.00
2019-05-10T01:39:07.066Z,0.90
2019-05-10T01:44:22.991Z,0.90
2019-05-10T01:49:38.427Z,1.17
2019-05-10T01:54:54.395Z,0.87
2019-05-10T02:00:11.647Z,1.27
2019-05-10T02:05:27.418Z,1.00
2019-05-10T02:10:43.365Z,1.10
2019-05-10T02:15:59.268Z,1.00
2019-05-10T02:21:15.392Z,1.00
2019-05-10T02:26:32.518Z,1.10
2019-05-10T02:31:48.112Z,0.90
2019-05-10T02:37:03.815Z,0.93
2019-05-10T02:42:19.204Z,1.00
2019-05-10T02:47:35.086Z,0.80
2019-05-10T02:52:51.255Z,1.00
2019-05-10T02:58:06.953Z,0.93
2019-05-10T03:03:26.190Z,0.90
2019-05-10T03:08:52.987Z,1.20
2019-05-10T03:14:12.795Z,1.13
2019-05-10T03:19:31.425Z,0.93
2019-05-10T03:24:47.053Z,1.10
2019-05-10T03:30:03.099Z,1.33
2019-05-10T03:35:19.222Z,1.20
2019-05-10T03:40:35.362Z,1.20
2019-05-10T03:45:51.390Z,1.03
2019-05-10T03:51:07.247Z,1.20
2019-05-10T03:56:22.782Z,1.57
2019-05-10T04:01:38.428Z,1.43
2019-05-10T04:06:54.126Z,1.20
2019-05-10T04:12:09.834Z,1.17
2019-05-10T04:17:26.067Z,1.37
2019-05-10T04:22:41.718Z,1.60
2019-05-10T04:27:57.338Z,1.30
2019-05-10T04:33:12.870Z,1.10
2019-05-10T04:38:28.416Z,1.40
2019-05-10T04:43:44.209Z,1.53
2019-05-10T04:49:00.361Z,1.40
2019-05-10T04:54:16.121Z,1.27
2019-05-10T04:59:31.545Z,1.90
2019-05-10T05:04:47.097Z,1.40
2019-05-10T05:10:02.951Z,1.20
2019-05-10T05:15:19.094Z,1.43
2019-05-10T05:20:34.950Z,1.50
2019-05-10T05:25:51.100Z,1.57
2019-05-10T05:31:06.610Z,1.70
2019-05-10T05:36:22.371Z,1.33
2019-05-10T05:41:47.577Z,1.40
2019-05-10T05:46:55.776Z,1.47
2019-05-10T05:52:11.981Z,1.60
2019-05-10T05:57:29.660Z,1.50
2019-05-10T06:02:46.736Z,1.30
2019-05-10T06:08:02.892Z,1.53
2019-05-10T06:13:23.394Z,1.47
2019-05-10T06:18:36.406Z,1.27
2019-05-10T06:23:52.022Z,1.43
2019-05-10T06:29:16.445Z,1.57
2019-05-10T06:34:25.178Z,1.20
2019-05-10T06:39:41.140Z,1.53
2019-05-10T06:44:56.931Z,1.73
2019-05-10T06:50:14.419Z,1.50
2019-05-10T06:55:30.800Z,1.67
2019-05-10T07:00:47.529Z,1.90
2019-05-10T07:06:06.195Z,2.13
2019-05-10T07:11:22.598Z,1.80
2019-05-10T07:16:38.338Z,2.00
2019-05-10T07:21:56.784Z,1.90
2019-05-10T07:27:14.994Z,1.87
2019-05-10T07:32:31.353Z,1.97
2019-05-10T07:37:51.388Z,1.70
2019-05-10T07:43:06.622Z,1.63
2019-05-10T07:48:23.386Z,2.10
2019-05-10T07:53:41.221Z,2.13
2019-05-10T07:59:00.551Z,2.00
2019-05-10T08:04:19.829Z,1.80
2019-05-10T08:09:37.122Z,2.07
2019-05-10T08:14:53.609Z,1.93
2019-05-10T08:20:25.663Z,2.63
2019-05-10T08:25:36.382Z,1.80
2019-05-10T08:30:58.186Z,2.30
2019-05-10T08:36:08.175Z,2.03
2019-05-10T08:41:34.882Z,1.90
2019-05-10T08:46:52.430Z,2.00
2019-05-10T08:52:08.001Z,1.80
2019-05-10T08:57:23.760Z,2.00
2019-05-10T09:02:39.717Z,1.80
2019-05-10T09:07:57.767Z,2.30
2019-05-10T09:13:14.975Z,1.77
2019-05-10T09:18:33.161Z,1.80
2019-05-10T09:23:53.024Z,1.60
2019-05-10T09:29:06.744Z,1.67
2019-05-10T09:34:25.925Z,1.67
2019-05-10T09:39:42.335Z,1.80
2019-05-10T09:44:57.873Z,1.87
2019-05-10T09:50:14.274Z,2.00
2019-05-10T09:55:30.014Z,3.47
2019-05-10T10:00:48.344Z,1.50
2019-05-10T10:06:07.833Z,1.60
2019-05-10T10:11:20.827Z,1.70
2019-05-10T10:16:36.600Z,2.47
2019-05-10T10:21:52.473Z,1.63
2019-05-10T10:27:08.495Z,1.70
2019-05-10T10:32:24.611Z,1.70
2019-05-10T10:37:41.575Z,1.63
2019-05-10T10:42:57.908Z,1.30
2019-05-10T10:48:13.769Z,2.00
2019-05-10T10:53:29.648Z,1.40
2019-05-10T10:58:49.647Z,1.67
2019-05-10T11:04:08.095Z,1.53
2019-05-10T11:09:21.935Z,1.70
2019-05-10T11:14:40.019Z,1.70
2019-05-10T11:19:55.886Z,1.60
2019-05-10T11:25:12.968Z,2.00
2019-05-10T11:30:29.381Z,1.33
2019-05-10T11:35:44.938Z,1.70
2019-05-10T11:41:01.944Z,1.50
2019-05-10T11:46:20.854Z,1.53
2019-05-10T11:51:36.233Z,1.17
2019-05-10T11:56:52.357Z,1.37
2019-05-10T12:02:10.514Z,1.20
2019-05-10T12:07:35.357Z,1.13
2019-05-10T12:12:59.766Z,1.10
2019-05-10T12:18:04.745Z,0.83
2019-05-10T12:23:31.507Z,0.93
2019-05-10T12:28:53.072Z,1.00
2019-05-10T12:34:13.106Z,1.00
2019-05-10T12:39:26.367Z,2.00
2019-05-10T12:44:44.015Z,1.20
2019-05-10T12:50:01.962Z,1.03
2019-05-10T12:55:18.640Z,1.13
2019-05-10T13:00:34.396Z,0.90
2019-05-10T13:05:52.900Z,1.17
2019-05-10T13:11:07.532Z,1.60
2019-05-10T13:16:23.088Z,1.60
2019-05-10T13:21:38.976Z,1.40
2019-05-10T13:26:54.775Z,1.30
2019-05-10T13:32:14.764Z,1.10
2019-05-10T13:37:29.117Z,1.37
2019-05-10T13:42:46.000Z,1.23
2019-05-10T13:48:02.195Z,1.33
2019-05-10T13:53:20.876Z,1.27
2019-05-10T13:58:36.619Z,1.53
2019-05-10T14:04:00.124Z,1.00
2019-05-10T14:09:12.170Z,0.80
2019-05-10T14:14:28.167Z,1.20
2019-05-10T14:19:48.375Z,1.17
2019-05-10T14:25:04.342Z,0.77
2019-05-10T14:30:20.793Z,1.10
2019-05-10T14:35:36.491Z,1.57
2019-05-10T14:40:52.580Z,1.40
2019-05-10T14:46:13.762Z,1.23
2019-05-10T14:51:40.380Z,1.20
2019-05-10T14:56:44.869Z,1.10
2019-05-10T15:02:00.669Z,0.90
2019-05-10T15:07:16.773Z,0.90
2019-05-10T15:12:33.467Z,0.77
2019-05-10T15:17:55.229Z,0.87
2019-05-10T15:23:07.017Z,2.47
2019-05-10T15:28:22.794Z,1.47
2019-05-10T15:33:38.842Z,1.10
2019-05-10T15:38:54.896Z,0.90
2019-05-10T15:44:11.975Z,0.70
2019-05-10T15:49:27.668Z,1.20
2019-05-10T15:54:44.495Z,0.60
2019-05-10T16:00:01.340Z,1.00
2019-05-10T16:05:29.321Z,0.80
2019-05-10T16:10:39.337Z,2.43
2019-05-10T16:15:57.523Z,0.67
2019-05-10T16:21:15.293Z,0.77
2019-05-10T16:26:27.684Z,0.67
2019-05-10T16:31:43.649Z,0.50
2019-05-10T16:37:00.646Z,1.10
2019-05-10T16:42:16.841Z,1.47
2019-05-10T16:47:34.096Z,0.80
2019-05-10T16:52:50.420Z,0.70
2019-05-10T16:58:09.503Z,1.20
2019-05-10T17:03:24.529Z,0.70
2019-05-10T17:08:40.268Z,1.30
2019-05-10T17:13:56.021Z,1.20
2019-05-10T17:19:27.805Z,1.20
2019-05-10T17:24:41.834Z,1.20
2019-05-10T17:29:57.516Z,1.37
2019-05-10T17:35:13.112Z,1.10
2019-05-10T17:40:29.214Z,0.90
2019-05-10T17:45:50.840Z,1.00
2019-05-10T17:51:15.308Z,1.13
2019-05-10T18:01:59.652Z,0.73
2019-05-10T18:07:26.438Z,1.17
2019-05-10T18:12:42.113Z,1.67
2019-05-10T18:18:02.729Z,1.30
2019-05-10T18:23:21.268Z,1.70
2019-05-10T18:28:34.478Z,1.70
2019-05-10T18:33:54.635Z,1.87
2019-05-10T18:39:15.704Z,2.60
2019-05-10T18:44:30.609Z,3.00
2019-05-10T18:49:46.378Z,2.13
2019-05-10T18:55:02.205Z,2.43
2019-05-10T19:00:23.165Z,2.03
2019-05-10T19:05:36.856Z,1.87
2019-05-10T19:10:53.230Z,1.40
2019-05-10T19:16:09.036Z,1.70
2019-05-10T19:21:24.985Z,1.50
2019-05-10T19:26:42.999Z,1.30
2019-05-10T19:31:59.277Z,1.70
2019-05-10T19:37:28.325Z,1.10
2019-05-10T19:42:37.345Z,0.97
2019-05-10T19:47:55.749Z,1.00
2019-05-10T19:53:09.860Z,1.03
2019-05-10T19:58:26.361Z,1.03
2019-05-10T20:03:43.223Z,1.00
2019-05-10T20:08:59.226Z,1.20
2019-05-10T20:14:19.185Z,1.20
2019-05-10T20:19:35.292Z,1.00
2019-05-10T20:24:53.049Z,1.20
2019-05-10T20:30:09.272Z,1.20
2019-05-10T20:35:25.044Z,1.20
2019-05-10T20:40:41.678Z,1.10
2019-05-10T20:45:57.491Z,1.47
2019-05-10T20:51:13.350Z,1.37
2019-05-10T20:56:29.016Z,1.10
2019-05-10T21:01:44.762Z,1.53
2019-05-10T21:07:00.621Z,1.30
2019-05-10T21:12:17.354Z,1.33
2019-05-10T21:17:33.358Z,1.40
2019-05-10T21:22:53.596Z,1.70
2019-05-10T21:28:12.834Z,1.50
2019-05-10T21:33:28.836Z,1.60
2019-05-10T21:38:45.103Z,0.90
2019-05-10T21:44:01.211Z,0.97
2019-05-10T21:49:17.337Z,1.40
2019-05-10T21:54:50.744Z,1.53
2019-05-10T22:00:10.246Z,1.30
2019-05-10T22:05:27.695Z,1.40
2019-05-10T22:10:45.092Z,1.33
2019-05-10T22:16:01.211Z,1.27
2019-05-10T22:21:16.972Z,1.30
2019-05-10T22:26:32.887Z,1.37
2019-05-10T22:31:48.363Z,1.60
2019-05-10T22:37:05.804Z,1.40
2019-05-10T22:42:23.315Z,1.30
2019-05-10T22:47:39.191Z,1.10
2019-05-10T22:52:54.964Z,1.30
2019-05-10T22:58:10.583Z,1.10
2019-05-10T23:03:26.418Z,1.33
2019-05-10T23:08:42.208Z,1.50
2019-05-10T23:13:57.964Z,1.70
2019-05-10T23:19:13.730Z,1.60
2019-05-10T23:24:41.787Z,1.70
2019-05-10T23:29:57.686Z,1.50
2019-05-10T23:35:16.954Z,1.27
2019-05-10T23:40:32.703Z,1.33
2019-05-10T23:45:51.809Z,1.53
2019-05-10T23:51:07.876Z,1.50
2019-05-10T23:56:23.424Z,1.40
